Latest Weather Observations for Adelaide Airport

IDS60901

Issued at 5:21 pm CST Saturday 18 September 2021 (issued every 10 minutes, with the page automatically refreshed every 10 minutes)

About weather observations | Map of Adelaide area stations | Latest observations for Adelaide area | Other Formats
Station Details ID: 023034 Name: ADELAIDE AIRPORT Lat: -34.95 Lon: 138.52 Height: 2.0 m
Data from the previous 72 hours. | See also: Recent months at Adelaide Airport
Date/Time
CST
Temp
°C
App
Temp
°C
Dew
Point
°C
Rel
Hum
%
Delta-T
°C
Wind Press
QNH
hPa
Press
MSL
hPa
Rain since
9am
mm
Dir  Spd
km/h
Gust
km/h
Spd
kts
Gust
kts
18/05:00pm 14.5 11.0 8.7 68 2.9 WSW 17 22 9 12 1020.9 1020.9 0.6
18/04:30pm 14.9 10.8 8.6 66 3.2 WSW 20 28 11 15 1020.9 1020.9 0.6
18/04:00pm 14.9 10.6 7.9 63 3.5 WSW 20 26 11 14 1020.9 1020.9 0.6
18/03:30pm 14.0 9.2 9.0 72 2.5 SW 24 30 13 16 1020.9 1020.9 0.6
18/03:00pm 14.4 12.1 9.0 70 2.7 WSW 11 17 6 9 1020.9 1020.9 0.6
18/02:30pm 13.9 10.5 9.3 74 2.3 WSW 17 22 9 12 1020.9 1020.9 0.6
18/02:00pm 14.3 10.5 9.1 71 2.6 SW 19 26 10 14 1020.9 1020.9 0.6
18/01:30pm 14.2 10.5 9.6 74 2.4 WSW 19 28 10 15 1020.8 1020.8 0.6
18/01:00pm 12.7 8.2 10.2 85 1.3 W 24 35 13 19 1020.9 1020.9 0.6
18/12:30pm 14.4 8.3 8.4 67 3.0 W 30 43 16 23 1020.7 1020.7 0.0
18/12:00pm 16.3 10.8 9.0 62 3.7 WNW 28 35 15 19 1020.8 1020.8 0.0
18/11:30am 15.5 10.1 7.8 60 3.8 W 26 32 14 17 1020.9 1020.9 0.0
18/11:00am 15.1 8.8 7.2 59 3.9 W 30 39 16 21 1020.9 1020.9 0.0
18/10:30am 14.7 8.8 7.5 62 3.5 W 28 35 15 19 1020.8 1020.8 0.0
18/10:00am 14.9 8.7 7.7 62 3.6 W 30 41 16 22 1020.8 1020.8 0.0
18/09:30am 14.4 7.5 7.2 62 3.5 W 33 43 18 23 1020.6 1020.6 0.0
18/09:00am 14.1 7.3 6.9 62 3.5 W 32 43 17 23 1020.4 1020.4 0.0
18/08:30am 14.0 7.8 8.0 67 3.0 WNW 30 37 16 20 1020.0 1020.0 0.0
18/08:00am 13.4 6.6 7.0 65 3.1 W 32 41 17 22 1019.5 1019.5 0.0
18/07:30am 13.0 7.0 7.2 68 2.8 W 28 35 15 19 1019.0 1019.0 0.0
18/07:00am 12.6 5.6 6.9 68 2.7 W 33 41 18 22 1018.6 1018.6 0.0
18/06:30am 12.3 6.1 6.1 66 2.9 W 28 35 15 19 1018.2 1018.2 0.0
18/06:00am 12.3 6.1 6.1 66 2.9 W 28 37 15 20 1017.8 1017.8 0.0
18/05:30am 12.3 6.3 7.0 70 2.5 W 28 35 15 19 1017.5 1017.5 0.0
18/05:00am 12.5 5.8 7.2 70 2.6 W 32 39 17 21 1017.0 1017.0 0.0
18/04:30am 12.2 6.3 7.3 72 2.4 WNW 28 39 15 21 1016.5 1016.5 0.0
18/04:00am 12.5 6.4 6.5 67 2.9 W 28 37 15 20 1016.2 1016.2 0.0
18/03:30am 12.7 6.6 6.7 67 2.9 W 28 39 15 21 1016.0 1016.0 0.0
18/03:00am 12.9 6.0 6.3 64 3.1 W 32 41 17 22 1015.8 1015.8 0.0
18/02:30am 13.0 6.4 6.1 63 3.3 W 30 39 16 21 1015.8 1015.8 0.0
18/02:00am 13.2 7.3 5.6 60 3.6 W 26 37 14 20 1015.8 1015.8 0.0
18/01:30am 13.1 7.2 6.0 62 3.4 W 26 37 14 20 1015.9 1015.9 0.0
18/01:00am 13.0 7.0 7.2 68 2.8 W 28 37 15 20 1015.9 1015.9 0.0
18/12:30am 13.2 6.9 7.2 67 2.9 W 30 39 16 21 1015.8 1015.8 0.0
18/12:00am 13.3 6.8 6.6 64 3.2 W 30 41 16 22 1015.9 1015.9 0.0
 
Date/Time
CST
Temp
°C
App
Temp
°C
Dew
Point
°C
Rel
Hum
%
Delta-T
°C
Wind Press
QNH
hPa
Press
MSL
hPa
Rain since
9am
mm
Dir  Spd
km/h
Gust
km/h
Spd
kts
Gust
kts
17/11:35pm 13.7 7.5 7.7 67 3.0 W 30 48 16 26 1015.9 1015.9 0.0
17/11:30pm 13.7 7.6 8.1 69 2.8 W 30 46 16 25 1015.9 1015.9 0.0
17/11:00pm 14.2 8.2 8.6 69 2.8 W 30 41 16 22 1015.8 1015.8 0.0
17/10:30pm 14.2 9.7 10.2 77 2.1 WNW 24 33 13 18 1015.7 1015.7 0.0
17/10:00pm 13.9 10.0 9.5 75 2.3 WNW 20 30 11 16 1015.7 1015.7 0.0
17/09:30pm 14.1 10.1 9.1 72 2.5 W 20 30 11 16 1015.5 1015.5 0.0
17/09:00pm 14.3 9.9 9.1 71 2.6 W 22 30 12 16 1015.2 1015.2 0.0
17/08:30pm 13.9 10.0 10.9 82 1.6 W 22 32 12 17 1014.5 1014.5 0.0
17/08:00pm 15.3 10.6 10.7 74 2.4 W 26 33 14 18 1013.7 1013.7 0.0
17/07:30pm 15.7 9.5 10.2 70 2.9 W 33 46 18 25 1012.9 1012.9 0.0
17/07:00pm 15.9 11.9 10.4 70 2.9 W 22 30 12 16 1012.1 1012.1 0.0
17/06:30pm 16.3 12.7 10.4 68 3.1 W 20 30 11 16 1011.9 1011.9 0.0
17/06:00pm 16.6 13.5 10.2 66 3.4 WSW 17 26 9 14 1011.5 1011.5 0.0
17/05:30pm 16.8 13.7 10.4 66 3.4 WSW 17 30 9 16 1010.9 1010.9 0.0
17/05:00pm 16.9 13.9 10.7 67 3.3 SW 17 22 9 12 1010.5 1010.5 0.0
17/04:30pm 17.0 13.8 9.9 63 3.7 SW 17 28 9 15 1009.9 1009.9 0.0
17/04:00pm 18.0 14.9 10.4 61 4.1 SW 17 24 9 13 1009.8 1009.8 0.0
17/03:30pm 17.8 15.1 10.4 62 4.0 SW 15 22 8 12 1009.5 1009.5 0.0
17/03:00pm 18.1 16.0 11.0 63 3.8 SW 13 17 7 9 1009.0 1009.0 0.0
17/02:30pm 18.3 15.1 11.4 64 3.8 SSW 19 24 10 13 1009.1 1009.1 0.0
17/02:00pm 18.1 15.3 11.2 64 3.7 SW 17 22 9 12 1008.8 1008.8 0.0
17/01:30pm 18.6 15.4 11.4 63 3.9 SW 19 26 10 14 1008.6 1008.6 0.0
17/01:00pm 18.6 15.5 11.7 64 3.8 SSW 19 24 10 13 1009.0 1009.0 0.0
17/12:30pm 18.9 16.6 12.9 68 3.4 SW 17 26 9 14 1008.9 1008.9 0.0
17/12:00pm 18.0 15.3 11.8 67 3.4 SW 17 22 9 12 1009.0 1009.0 0.0
17/11:30am 18.0 14.8 11.3 65 3.6 WSW 19 24 10 13 1009.0 1009.0 0.0
17/11:00am 18.2 15.1 11.7 66 3.6 WSW 19 24 10 13 1008.9 1008.9 0.0
17/10:30am 18.4 13.5 10.0 58 4.5 W 26 32 14 17 1008.8 1008.8 0.0
17/10:00am 20.4 17.2 6.7 41 6.9 NNW 13 17 7 9 1008.4 1008.4 0.0
17/09:30am 20.2 15.5 5.1 37 7.4 NW 19 26 10 14 1008.3 1008.3 0.0
17/09:00am 20.7 14.9 4.3 34 7.9 NW 24 32 13 17 1007.9 1007.9 0.0
17/08:30am 21.2 15.5 3.0 30 8.6 NNE 22 33 12 18 1007.7 1007.7 0.0
17/08:00am 20.7 15.8 3.9 33 8.1 NNE 19 28 10 15 1007.3 1007.3 0.0
17/07:30am 19.4 13.3 2.7 33 7.8 NE 24 30 13 16 1007.1 1007.1 0.0
17/07:00am 18.4 12.6 2.3 34 7.3 NE 22 28 12 15 1006.9 1006.9 0.0
17/06:30am 17.8 12.4 2.2 35 7.1 NNE 20 28 11 15 1007.1 1007.1 0.0
17/06:00am 18.0 11.8 1.9 34 7.3 N 24 30 13 16 1007.1 1007.1 0.0
17/05:30am 19.3 13.4 1.8 31 8.0 N 22 30 12 16 1006.9 1006.9 0.0
17/05:00am 20.5 13.7 0.9 27 8.8 N 26 35 14 19 1006.2 1006.2 0.0
17/04:30am 21.3 13.7 0.5 25 9.4 NNE 30 44 16 24 1005.1 1005.1 0.0
17/04:00am 21.6 12.3 0.8 25 9.5 NNE 39 54 21 29 1004.7 1004.7 0.0
17/03:47am 21.5 12.3 1.2 26 9.3 NNE 39 56 21 30 1004.6 1004.6 0.0
17/03:30am 22.0 12.7 0.5 24 9.8 NNE 39 56 21 30 1004.6 1004.6 0.0
17/03:04am 22.7 14.6 -0.1 22 10.3 NE 32 50 17 27 1005.3 1005.3 0.0
17/03:00am 22.9 14.7 0.1 22 10.4 NE 33 50 18 27 1005.3 1005.3 0.0
17/02:40am 22.6 14.0 0.4 23 10.1 NE 35 50 19 27 1005.6 1005.6 0.0
17/02:30am 22.8 14.7 0.0 22 10.3 NNE 32 44 17 24 1005.7 1005.7 0.0
17/02:00am 22.4 14.6 2.0 26 9.6 NNE 32 43 17 23 1006.2 1006.2 0.0
17/01:47am 22.9 13.8 -0.6 21 10.5 NE 37 50 20 27 1006.3 1006.3 0.0
17/01:30am 22.5 13.8 -0.3 22 10.3 NE 35 52 19 28 1006.6 1006.6 0.0
17/01:26am 22.9 13.9 0.1 22 10.3 NE 37 56 20 30 1006.8 1006.8 0.0
17/01:00am 23.0 13.5 -0.5 21 10.5 NE 39 52 21 28 1007.5 1007.5 0.0
17/12:30am 22.8 14.5 0.0 22 10.3 NE 33 44 18 24 1007.9 1007.9 0.0
17/12:00am 22.1 13.8 0.0 23 10.0 NE 33 46 18 25 1008.4 1008.4 0.0
 
Date/Time
CST
Temp
°C
App
Temp
°C
Dew
Point
°C
Rel
Hum
%
Delta-T
°C
Wind Press
QNH
hPa
Press
MSL
hPa
Rain since
9am
mm
Dir  Spd
km/h
Gust
km/h
Spd
kts
Gust
kts
16/11:30pm 21.6 14.8 0.8 25 9.5 NE 26 33 14 18 1009.3 1009.3 0.0
16/11:00pm 20.0 14.0 1.0 28 8.6 NE 22 28 12 15 1009.9 1009.9 0.0
16/10:30pm 20.7 14.4 1.6 28 8.8 NE 24 32 13 17 1010.4 1010.4 0.0
16/10:00pm 21.2 13.3 1.0 26 9.2 NE 32 44 17 24 1010.5 1010.5 0.0
16/09:30pm 21.7 14.2 1.4 26 9.4 NE 30 39 16 21 1011.0 1011.0 0.0
16/09:00pm 22.3 13.9 1.3 25 9.7 NE 35 46 19 25 1011.0 1011.0 0.0
16/08:30pm 22.1 14.7 1.7 26 9.5 ENE 30 41 16 22 1011.2 1011.2 0.0
16/08:00pm 21.9 16.1 2.1 27 9.3 ENE 22 35 12 19 1011.7 1011.7 0.0
16/07:30pm 22.2 15.6 2.3 27 9.4 ENE 26 35 14 19 1011.6 1011.6 0.0
16/07:00pm 21.7 15.2 2.9 29 8.9 ENE 26 35 14 19 1011.5 1011.5 0.0
16/06:30pm 20.9 16.3 3.6 32 8.3 NE 17 22 9 12 1011.9 1011.9 0.0
16/06:00pm 22.4 17.1 3.0 28 9.3 NE 20 26 11 14 1012.3 1012.3 0.0
16/05:30pm 23.2 16.7 2.7 26 9.8 NNE 26 35 14 19 1012.4 1012.4 0.0
16/05:00pm 23.6 16.8 3.0 26 9.9 NE 28 37 15 20 1012.4 1012.4 0.0
16/04:30pm 23.8 17.0 3.2 26 10.0 NE 28 37 15 20 1012.8 1012.8 0.0
16/04:00pm 23.9 17.2 3.8 27 9.8 NNE 28 35 15 19 1013.3 1013.3 0.0
16/03:30pm 24.1 17.8 4.0 27 9.9 NE 26 37 14 20 1013.4 1013.4 0.0
16/03:00pm 24.0 17.9 4.9 29 9.6 NNE 26 33 14 18 1013.9 1013.9 0.0
16/02:30pm 23.4 16.8 4.4 29 9.4 NNE 28 37 15 20 1014.6 1014.6 0.0
16/02:00pm 23.7 17.2 4.6 29 9.5 NNE 28 39 15 21 1015.0 1015.0 0.0
16/01:30pm 24.0 17.6 5.4 30 9.4 NE 28 37 15 20 1015.5 1015.5 0.0
16/01:00pm 22.8 16.1 3.9 29 9.2 NNE 28 35 15 19 1016.1 1016.1 0.0
16/12:30pm 23.5 17.8 4.9 30 9.3 NNE 24 33 13 18 1016.6 1016.6 0.0
16/12:00pm 22.6 16.5 4.6 31 8.9 NNE 26 30 14 16 1017.1 1017.1 0.0
16/11:30am 22.0 16.1 4.1 31 8.7 NNE 24 32 13 17 1017.5 1017.5 0.0
16/11:00am 21.6 15.3 3.8 31 8.6 NNE 26 32 14 17 1017.9 1017.9 0.0
16/10:30am 21.1 14.3 3.3 31 8.4 NNE 28 33 15 18 1018.2 1018.2 0.0
16/10:00am 20.3 14.0 3.9 34 7.8 NNE 26 33 14 18 1018.9 1018.9 0.0
16/09:30am 19.3 14.4 4.3 37 7.2 NE 19 24 10 13 1019.4 1019.4 0.0
16/09:00am 17.9 12.9 4.5 41 6.4 NNE 20 26 11 14 1019.8 1019.8 0.0
16/08:30am 16.6 11.7 4.0 43 5.9 NNE 19 28 10 15 1019.8 1019.8 0.0
16/08:00am 13.6 12.5 5.3 57 3.9 CALM 0 6 0 3 1020.0 1020.0 0.0
16/07:30am 11.0 10.2 6.6 74 2.1 CALM 0 0 0 0 1020.3 1020.3 0.0
16/07:00am 8.0 7.0 5.5 84 1.1 CALM 0 0 0 0 1020.2 1020.2 0.0
16/06:30am 6.2 4.5 4.0 86 0.9 SE 2 9 1 5 1020.1 1020.1 0.0
16/06:00am 6.2 4.7 3.2 81 1.2 CALM 0 0 0 0 1020.1 1020.1 0.0
16/05:30am 7.2 5.8 3.6 78 1.5 CALM 0 0 0 0 1020.1 1020.1 0.0
16/05:00am 7.3 5.9 3.4 76 1.7 CALM 0 6 0 3 1020.2 1020.2 0.0
16/04:30am 7.2 5.2 4.3 82 1.2 SSW 4 9 2 5 1019.9 1019.9 0.0
16/04:00am 7.4 6.2 4.4 81 1.3 CALM 0 0 0 0 1019.9 1019.9 0.0
16/03:30am 7.8 6.5 4.0 77 1.6 CALM 0 0 0 0 1020.0 1020.0 0.0
16/03:00am 9.2 6.7 3.8 69 2.3 ESE 6 7 3 4 1020.3 1020.3 0.0
16/02:30am 9.5 7.4 3.9 68 2.4 ESE 4 7 2 4 1020.5 1020.5 0.0
16/02:00am 10.2 6.4 3.9 65 2.8 E 13 15 7 8 1020.7 1020.7 0.0
16/01:30am 10.2 6.4 4.1 66 2.7 E 13 17 7 9 1021.0 1021.0 0.0
16/01:00am 11.1 8.5 4.1 62 3.1 E 7 9 4 5 1021.3 1021.3 0.0
16/12:30am 12.1 9.1 4.3 59 3.5 ESE 9 11 5 6 1021.7 1021.7 0.0
16/12:00am 12.0 9.6 4.2 59 3.5 E 6 7 3 4 1022.2 1022.2 0.0
 
Date/Time
CST
Temp
°C
App
Temp
°C
Dew
Point
°C
Rel
Hum
%
Delta-T
°C
Wind Press
QNH
hPa
Press
MSL
hPa
Rain since
9am
mm
Dir  Spd
km/h
Gust
km/h
Spd
kts
Gust
kts
15/11:30pm 11.5 8.2 4.3 61 3.2 ESE 11 11 6 6 1022.2 1022.2 0.0
15/11:00pm 12.3 8.7 4.8 60 3.4 ESE 13 15 7 8 1022.3 1022.3 0.0
15/10:30pm 12.5 8.9 5.2 61 3.4 SE 13 15 7 8 1022.6 1022.6 0.0
15/10:00pm 12.9 9.3 5.1 59 3.6 ESE 13 17 7 9 1022.7 1022.7 0.0
15/09:30pm 13.3 10.1 5.2 58 3.8 ESE 11 15 6 8 1022.9 1022.9 0.0
15/09:00pm 13.6 10.2 5.7 59 3.7 ESE 13 17 7 9 1022.7 1022.7 0.0
15/08:30pm 13.5 10.1 5.7 59 3.7 ESE 13 19 7 10 1022.6 1022.6 0.0
15/08:00pm 14.0 9.7 5.4 56 4.0 ESE 17 22 9 12 1022.4 1022.4 0.0
15/07:30pm 14.7 10.8 5.5 54 4.3 ESE 15 19 8 10 1022.3 1022.3 0.0
15/07:00pm 15.1 10.6 6.1 55 4.3 ESE 19 26 10 14 1022.1 1022.1 0.0
15/06:30pm 15.9 11.8 6.1 52 4.7 ESE 17 26 9 14 1022.0 1022.0 0.0
15/06:00pm 16.5 12.5 6.6 52 4.8 ESE 17 24 9 13 1021.8 1021.8 0.0
15/05:30pm 15.7 13.2 9.6 67 3.2 SW 13 15 7 8 1021.5 1021.5 0.0

Latest Capital City Observations: Canberra | Sydney | Melbourne | Brisbane | Adelaide | Perth | Hobart | Darwin

Other formats

Comma delimited format used in spreadsheet applications
http://www.bom.gov.au/fwo/IDS60901/IDS60901.94672.axf

JavaScript Object Notation format (JSON) in row-major order
http://www.bom.gov.au/fwo/IDS60901/IDS60901.94672.json

Data quality

Most of these data are generated automatically and are frequently updated. Quality checks on data are not normally performed. It is possible for incorrect values to appear. Refer to information at About Latest Weather Observations and please check the disclaimer before using these data.